Pagrindinis puslapis
METAR-TAF:

METAR-TAF

Oro uostai :

Anvik, Aliaska, Jungtinės Amerikos Valstijos

platuma: 62-38-54N, ilguma: 160-11-23W, Aukštis: 94 m

Dabartinis oras

Ataskaita buvo paskelbta 19 minutes, ne 21:23 UTC
Vėjas 7 kt iš Vakarų
Temperatūra 10°C
Drėgmė 66%
Slėgis 1017 hPa
Matomumas: 16.1 km
Išsisklaidę debesys ne aukštis 2200 ft
Apsiniaukę ne aukštis 3700 ft

METAR: PANV 052123Z AUTO 28007KT 10SM SCT022 OVC037 10/04 A3002 RMK AO2 TSNO

Laikas: 13:42 (21:42 UTC)


TAF: trūkstamas

Orai ataskaitas ir orų prognozės (METAR, TAF).

turimą stotys yra geltonos ir raudonos taškus žemėlapyje.

Perkelti pele per norėdami pamatyti stoties vardą.

Tada spustelėkite, norėdami matyti oro stebėjimo ir prognozės.

Norėdami pakeisti žemėlapį: spustelėkite ant žalios mygtukų su juodo kryžiaus žemyn,; žalią mygtuką su brūkšneliu, jei norite nutolinti; arba žalių rodyklių gretimoms žemėlapius.


METAR-TAF: